Gillett, Texas
Current Conditions -  °F | °C
As of 4:55 PM on Thursday 18 Dec 2014 (Local Time) from KT20 Reporting Station
Overcast Overcast  
Wind Chill: 62°   Ceiling: 1200
Heat Index: 62°   Visibility: 7mi
Dew Point: 58°   Wind: 8mph
Humidity: 85%   Direction: 50°NE
Pressure: 30.03"   Gusts: NA
Location:  29.13°N, 97.78°W
Report Text: KT20 182255Z AUTO 05007KT 7SM OVC012 17/14 A3003 RMK AO2 T01680143
Loading
Personal Weather Stations






























Interactive Weather Map New forecast layout! Learn more

10-Day Weather Forecast

Advertisements
Track Severe Weather on mobile